sensor_id;sensor_type;location;lat;lon;timestamp;P1;durP1;ratioP1;P2;durP2;ratioP2
23732;SDS011;12047;53.450;-2.286;2022-12-24T00:00:49;32.95;;;7.43;;
23732;SDS011;12047;53.450;-2.286;2022-12-24T00:05:49;25.50;;;6.05;;
23732;SDS011;12047;53.450;-2.286;2022-12-24T00:10:51;27.17;;;5.57;;
23732;SDS011;12047;53.450;-2.286;2022-12-24T00:15:52;42.10;;;6.45;;
23732;SDS011;12047;53.450;-2.286;2022-12-24T00:20:53;44.92;;;8.70;;
23732;SDS011;12047;53.450;-2.286;2022-12-24T00:25:53;43.72;;;7.68;;
23732;SDS011;12047;53.450;-2.286;2022-12-24T00:30:54;35.42;;;6.03;;
23732;SDS011;12047;53.450;-2.286;2022-12-24T00:35:55;46.20;;;6.22;;
23732;SDS011;12047;53.450;-2.286;2022-12-24T00:40:59;48.05;;;5.90;;
23732;SDS011;12047;53.450;-2.286;2022-12-24T00:46:04;38.63;;;5.78;;
23732;SDS011;12047;53.450;-2.286;2022-12-24T00:51:05;37.90;;;6.15;;
23732;SDS011;12047;53.450;-2.286;2022-12-24T00:56:06;40.92;;;6.25;;
23732;SDS011;12047;53.450;-2.286;2022-12-24T01:01:07;33.90;;;4.82;;
23732;SDS011;12047;53.450;-2.286;2022-12-24T01:06:09;38.33;;;5.13;;
23732;SDS011;12047;53.450;-2.286;2022-12-24T01:11:12;48.95;;;6.18;;
23732;SDS011;12047;53.450;-2.286;2022-12-24T01:16:17;47.20;;;5.93;;
23732;SDS011;12047;53.450;-2.286;2022-12-24T01:21:19;47.30;;;6.30;;
23732;SDS011;12047;53.450;-2.286;2022-12-24T01:26:20;38.35;;;5.60;;
23732;SDS011;12047;53.450;-2.286;2022-12-24T01:31:20;39.00;;;6.03;;
23732;SDS011;12047;53.450;-2.286;2022-12-24T01:36:21;44.03;;;6.10;;
23732;SDS011;12047;53.450;-2.286;2022-12-24T01:41:22;52.40;;;5.97;;
23732;SDS011;12047;53.450;-2.286;2022-12-24T01:46:41;34.72;;;6.03;;
23732;SDS011;12047;53.450;-2.286;2022-12-24T01:51:46;40.15;;;5.28;;
23732;SDS011;12047;53.450;-2.286;2022-12-24T01:56:52;32.38;;;5.57;;
23732;SDS011;12047;53.450;-2.286;2022-12-24T02:01:57;34.88;;;4.93;;
23732;SDS011;12047;53.450;-2.286;2022-12-24T02:06:58;26.73;;;4.13;;
23732;SDS011;12047;53.450;-2.286;2022-12-24T02:11:59;25.33;;;3.97;;
23732;SDS011;12047;53.450;-2.286;2022-12-24T02:33:16;15.75;;;3.15;;
23732;SDS011;12047;53.450;-2.286;2022-12-24T02:43:37;18.52;;;2.75;;
23732;SDS011;12047;53.450;-2.286;2022-12-24T02:48:41;20.42;;;3.90;;
23732;SDS011;12047;53.450;-2.286;2022-12-24T02:53:44;23.10;;;3.63;;
23732;SDS011;12047;53.450;-2.286;2022-12-24T02:58:52;15.40;;;2.88;;
23732;SDS011;12047;53.450;-2.286;2022-12-24T03:14:43;17.15;;;2.88;;
23732;SDS011;12047;53.450;-2.286;2022-12-24T03:19:47;15.70;;;2.97;;
23732;SDS011;12047;53.450;-2.286;2022-12-24T03:24:48;20.17;;;3.28;;
23732;SDS011;12047;53.450;-2.286;2022-12-24T03:29:49;17.00;;;2.72;;
23732;SDS011;12047;53.450;-2.286;2022-12-24T03:34:50;18.05;;;3.15;;
23732;SDS011;12047;53.450;-2.286;2022-12-24T03:39:51;16.55;;;3.10;;
23732;SDS011;12047;53.450;-2.286;2022-12-24T03:44:51;15.95;;;2.65;;
23732;SDS011;12047;53.450;-2.286;2022-12-24T03:49:52;15.57;;;2.70;;
23732;SDS011;12047;53.450;-2.286;2022-12-24T03:54:53;8.18;;;2.00;;
23732;SDS011;12047;53.450;-2.286;2022-12-24T03:59:56;20.40;;;2.40;;
23732;SDS011;12047;53.450;-2.286;2022-12-24T04:05:00;11.93;;;2.15;;
23732;SDS011;12047;53.450;-2.286;2022-12-24T04:10:01;13.68;;;2.28;;
23732;SDS011;12047;53.450;-2.286;2022-12-24T04:15:03;18.13;;;2.50;;
23732;SDS011;12047;53.450;-2.286;2022-12-24T04:20:04;14.27;;;2.30;;
23732;SDS011;12047;53.450;-2.286;2022-12-24T04:25:06;10.30;;;1.95;;
23732;SDS011;12047;53.450;-2.286;2022-12-24T04:30:09;12.10;;;2.10;;
23732;SDS011;12047;53.450;-2.286;2022-12-24T04:35:10;12.90;;;2.33;;
23732;SDS011;12047;53.450;-2.286;2022-12-24T04:40:11;12.75;;;2.33;;
23732;SDS011;12047;53.450;-2.286;2022-12-24T04:45:11;7.47;;;1.83;;
23732;SDS011;12047;53.450;-2.286;2022-12-24T04:50:12;13.10;;;2.50;;
23732;SDS011;12047;53.450;-2.286;2022-12-24T04:55:13;12.38;;;2.50;;
23732;SDS011;12047;53.450;-2.286;2022-12-24T05:00:17;14.45;;;2.97;;
23732;SDS011;12047;53.450;-2.286;2022-12-24T05:05:19;12.48;;;2.38;;
23732;SDS011;12047;53.450;-2.286;2022-12-24T05:10:20;9.63;;;2.20;;
23732;SDS011;12047;53.450;-2.286;2022-12-24T05:15:21;10.68;;;1.92;;
23732;SDS011;12047;53.450;-2.286;2022-12-24T05:20:21;8.90;;;2.30;;
23732;SDS011;12047;53.450;-2.286;2022-12-24T05:25:31;9.85;;;2.30;;
23732;SDS011;12047;53.450;-2.286;2022-12-24T05:30:55;7.47;;;1.80;;
23732;SDS011;12047;53.450;-2.286;2022-12-24T05:35:56;16.83;;;2.65;;
23732;SDS011;12047;53.450;-2.286;2022-12-24T05:40:57;9.88;;;2.28;;
23732;SDS011;12047;53.450;-2.286;2022-12-24T05:45:58;8.55;;;1.77;;
23732;SDS011;12047;53.450;-2.286;2022-12-24T05:51:03;17.25;;;3.20;;
23732;SDS011;12047;53.450;-2.286;2022-12-24T05:56:07;11.52;;;2.47;;
23732;SDS011;12047;53.450;-2.286;2022-12-24T06:01:09;15.05;;;2.80;;
23732;SDS011;12047;53.450;-2.286;2022-12-24T06:06:15;12.15;;;2.40;;
23732;SDS011;12047;53.450;-2.286;2022-12-24T06:11:20;18.90;;;3.25;;
23732;SDS011;12047;53.450;-2.286;2022-12-24T06:16:23;15.40;;;3.45;;
23732;SDS011;12047;53.450;-2.286;2022-12-24T06:21:24;12.52;;;3.08;;
23732;SDS011;12047;53.450;-2.286;2022-12-24T06:26:25;13.60;;;2.72;;
23732;SDS011;12047;53.450;-2.286;2022-12-24T06:31:25;20.45;;;3.13;;
23732;SDS011;12047;53.450;-2.286;2022-12-24T06:36:26;15.20;;;2.85;;
23732;SDS011;12047;53.450;-2.286;2022-12-24T06:41:26;17.02;;;3.35;;
23732;SDS011;12047;53.450;-2.286;2022-12-24T06:46:27;21.33;;;3.60;;
23732;SDS011;12047;53.450;-2.286;2022-12-24T06:51:28;15.48;;;3.00;;
23732;SDS011;12047;53.450;-2.286;2022-12-24T06:56:28;15.75;;;2.55;;
23732;SDS011;12047;53.450;-2.286;2022-12-24T07:01:29;15.68;;;2.80;;
23732;SDS011;12047;53.450;-2.286;2022-12-24T07:06:30;19.35;;;3.05;;
23732;SDS011;12047;53.450;-2.286;2022-12-24T07:11:30;21.45;;;3.10;;
23732;SDS011;12047;53.450;-2.286;2022-12-24T07:16:31;14.82;;;2.78;;
23732;SDS011;12047;53.450;-2.286;2022-12-24T07:21:32;22.73;;;3.50;;
23732;SDS011;12047;53.450;-2.286;2022-12-24T07:26:32;18.95;;;3.25;;
23732;SDS011;12047;53.450;-2.286;2022-12-24T07:31:33;20.70;;;2.67;;
23732;SDS011;12047;53.450;-2.286;2022-12-24T07:36:34;27.70;;;3.90;;
23732;SDS011;12047;53.450;-2.286;2022-12-24T07:41:34;23.65;;;3.65;;
23732;SDS011;12047;53.450;-2.286;2022-12-24T07:46:38;15.48;;;2.42;;
23732;SDS011;12047;53.450;-2.286;2022-12-24T07:51:39;24.80;;;3.53;;
23732;SDS011;12047;53.450;-2.286;2022-12-24T07:56:41;31.10;;;3.83;;
23732;SDS011;12047;53.450;-2.286;2022-12-24T08:01:42;36.63;;;4.00;;
23732;SDS011;12047;53.450;-2.286;2022-12-24T08:06:46;26.75;;;3.55;;
23732;SDS011;12047;53.450;-2.286;2022-12-24T08:11:49;26.77;;;3.47;;
23732;SDS011;12047;53.450;-2.286;2022-12-24T08:16:49;22.77;;;3.03;;
23732;SDS011;12047;53.450;-2.286;2022-12-24T08:21:50;22.42;;;3.65;;
23732;SDS011;12047;53.450;-2.286;2022-12-24T08:26:51;32.10;;;4.47;;
23732;SDS011;12047;53.450;-2.286;2022-12-24T08:31:52;29.02;;;3.75;;
23732;SDS011;12047;53.450;-2.286;2022-12-24T08:36:52;31.45;;;3.97;;
23732;SDS011;12047;53.450;-2.286;2022-12-24T08:41:53;29.27;;;3.58;;
23732;SDS011;12047;53.450;-2.286;2022-12-24T08:46:53;48.50;;;5.25;;
23732;SDS011;12047;53.450;-2.286;2022-12-24T08:51:54;30.30;;;3.83;;
23732;SDS011;12047;53.450;-2.286;2022-12-24T08:56:54;32.85;;;4.82;;
23732;SDS011;12047;53.450;-2.286;2022-12-24T09:01:55;32.55;;;4.85;;
23732;SDS011;12047;53.450;-2.286;2022-12-24T09:06:59;24.02;;;3.88;;
23732;SDS011;12047;53.450;-2.286;2022-12-24T09:11:59;22.63;;;4.18;;
23732;SDS011;12047;53.450;-2.286;2022-12-24T09:17:00;26.42;;;3.80;;
23732;SDS011;12047;53.450;-2.286;2022-12-24T09:22:00;28.38;;;4.43;;
23732;SDS011;12047;53.450;-2.286;2022-12-24T09:27:01;31.77;;;3.97;;
23732;SDS011;12047;53.450;-2.286;2022-12-24T09:32:03;27.77;;;3.78;;
23732;SDS011;12047;53.450;-2.286;2022-12-24T09:37:03;29.38;;;3.97;;
23732;SDS011;12047;53.450;-2.286;2022-12-24T09:47:14;28.58;;;4.25;;
23732;SDS011;12047;53.450;-2.286;2022-12-24T09:52:31;31.77;;;4.65;;
23732;SDS011;12047;53.450;-2.286;2022-12-24T09:57:43;33.88;;;4.75;;
23732;SDS011;12047;53.450;-2.286;2022-12-24T10:02:46;28.90;;;4.28;;
23732;SDS011;12047;53.450;-2.286;2022-12-24T10:08:22;30.35;;;4.20;;
23732;SDS011;12047;53.450;-2.286;2022-12-24T10:13:21;32.38;;;4.72;;
23732;SDS011;12047;53.450;-2.286;2022-12-24T10:29:10;28.63;;;4.38;;
23732;SDS011;12047;53.450;-2.286;2022-12-24T10:34:24;28.40;;;4.60;;
23732;SDS011;12047;53.450;-2.286;2022-12-24T10:39:29;30.40;;;4.22;;
23732;SDS011;12047;53.450;-2.286;2022-12-24T10:44:30;36.15;;;3.75;;
23732;SDS011;12047;53.450;-2.286;2022-12-24T10:49:41;22.35;;;4.43;;
23732;SDS011;12047;53.450;-2.286;2022-12-24T11:00:06;24.83;;;4.03;;
23732;SDS011;12047;53.450;-2.286;2022-12-24T11:05:28;24.42;;;3.63;;
23732;SDS011;12047;53.450;-2.286;2022-12-24T11:10:32;26.67;;;4.55;;
23732;SDS011;12047;53.450;-2.286;2022-12-24T11:15:36;21.15;;;3.67;;
23732;SDS011;12047;53.450;-2.286;2022-12-24T11:20:37;29.27;;;3.72;;
23732;SDS011;12047;53.450;-2.286;2022-12-24T11:25:38;33.28;;;4.30;;
23732;SDS011;12047;53.450;-2.286;2022-12-24T11:35:59;21.67;;;3.53;;
23732;SDS011;12047;53.450;-2.286;2022-12-24T11:41:09;27.52;;;3.40;;
23732;SDS011;12047;53.450;-2.286;2022-12-24T11:46:12;20.23;;;3.15;;
23732;SDS011;12047;53.450;-2.286;2022-12-24T11:51:22;28.25;;;3.92;;
23732;SDS011;12047;53.450;-2.286;2022-12-24T12:01:35;25.90;;;3.90;;
23732;SDS011;12047;53.450;-2.286;2022-12-24T12:06:44;22.35;;;4.53;;
23732;SDS011;12047;53.450;-2.286;2022-12-24T12:11:58;26.67;;;4.25;;
23732;SDS011;12047;53.450;-2.286;2022-12-24T12:22:56;34.50;;;3.72;;
23732;SDS011;12047;53.450;-2.286;2022-12-24T12:27:54;24.02;;;3.17;;
23732;SDS011;12047;53.450;-2.286;2022-12-24T12:33:02;18.30;;;2.72;;
23732;SDS011;12047;53.450;-2.286;2022-12-24T12:38:25;23.30;;;3.75;;
23732;SDS011;12047;53.450;-2.286;2022-12-24T12:59:47;22.13;;;3.58;;
23732;SDS011;12047;53.450;-2.286;2022-12-24T13:10:51;26.35;;;4.43;;
23732;SDS011;12047;53.450;-2.286;2022-12-24T13:16:03;24.98;;;3.47;;
23732;SDS011;12047;53.450;-2.286;2022-12-24T13:21:25;24.38;;;4.20;;
23732;SDS011;12047;53.450;-2.286;2022-12-24T13:26:31;18.95;;;3.20;;
23732;SDS011;12047;53.450;-2.286;2022-12-24T13:31:31;26.27;;;3.60;;
23732;SDS011;12047;53.450;-2.286;2022-12-24T13:36:58;20.77;;;3.28;;
23732;SDS011;12047;53.450;-2.286;2022-12-24T13:47:47;21.92;;;3.53;;
23732;SDS011;12047;53.450;-2.286;2022-12-24T13:52:49;23.65;;;4.25;;
23732;SDS011;12047;53.450;-2.286;2022-12-24T13:57:53;18.13;;;4.40;;
23732;SDS011;12047;53.450;-2.286;2022-12-24T14:08:05;20.92;;;4.85;;
23732;SDS011;12047;53.450;-2.286;2022-12-24T14:18:39;25.55;;;4.93;;
23732;SDS011;12047;53.450;-2.286;2022-12-24T14:23:44;22.83;;;5.18;;
23732;SDS011;12047;53.450;-2.286;2022-12-24T14:28:57;27.63;;;5.18;;
23732;SDS011;12047;53.450;-2.286;2022-12-24T14:34:06;28.10;;;5.00;;
23732;SDS011;12047;53.450;-2.286;2022-12-24T14:39:15;28.15;;;5.60;;
23732;SDS011;12047;53.450;-2.286;2022-12-24T14:44:39;24.00;;;5.00;;
23732;SDS011;12047;53.450;-2.286;2022-12-24T14:54:58;20.02;;;4.97;;
23732;SDS011;12047;53.450;-2.286;2022-12-24T14:59:59;18.63;;;4.60;;
23732;SDS011;12047;53.450;-2.286;2022-12-24T15:05:09;21.05;;;5.13;;
23732;SDS011;12047;53.450;-2.286;2022-12-24T15:10:25;17.75;;;4.20;;
23732;SDS011;12047;53.450;-2.286;2022-12-24T15:15:32;20.30;;;4.47;;
23732;SDS011;12047;53.450;-2.286;2022-12-24T15:20:33;23.80;;;4.40;;
23732;SDS011;12047;53.450;-2.286;2022-12-24T15:25:34;26.83;;;5.03;;
23732;SDS011;12047;53.450;-2.286;2022-12-24T15:30:34;19.65;;;3.90;;
23732;SDS011;12047;53.450;-2.286;2022-12-24T15:40:41;25.40;;;4.95;;
23732;SDS011;12047;53.450;-2.286;2022-12-24T15:45:48;28.58;;;7.78;;
23732;SDS011;12047;53.450;-2.286;2022-12-24T15:50:59;25.50;;;6.85;;
23732;SDS011;12047;53.450;-2.286;2022-12-24T15:56:09;27.30;;;8.15;;
23732;SDS011;12047;53.450;-2.286;2022-12-24T16:06:15;29.17;;;5.10;;
23732;SDS011;12047;53.450;-2.286;2022-12-24T16:11:23;21.60;;;5.50;;
23732;SDS011;12047;53.450;-2.286;2022-12-24T16:16:39;19.73;;;5.10;;
23732;SDS011;12047;53.450;-2.286;2022-12-24T16:21:42;22.48;;;5.65;;
23732;SDS011;12047;53.450;-2.286;2022-12-24T16:26:50;27.20;;;5.70;;
23732;SDS011;12047;53.450;-2.286;2022-12-24T16:31:52;25.90;;;6.10;;
23732;SDS011;12047;53.450;-2.286;2022-12-24T16:36:54;29.80;;;5.78;;
23732;SDS011;12047;53.450;-2.286;2022-12-24T16:41:56;29.98;;;5.95;;
23732;SDS011;12047;53.450;-2.286;2022-12-24T16:47:18;22.23;;;5.28;;
23732;SDS011;12047;53.450;-2.286;2022-12-24T16:52:28;23.48;;;5.18;;
23732;SDS011;12047;53.450;-2.286;2022-12-24T16:57:32;21.55;;;4.65;;
23732;SDS011;12047;53.450;-2.286;2022-12-24T17:13:49;23.80;;;4.90;;
23732;SDS011;12047;53.450;-2.286;2022-12-24T17:24:31;32.83;;;5.93;;
23732;SDS011;12047;53.450;-2.286;2022-12-24T17:35:12;24.20;;;4.82;;
23732;SDS011;12047;53.450;-2.286;2022-12-24T17:40:14;23.98;;;5.10;;
23732;SDS011;12047;53.450;-2.286;2022-12-24T17:45:15;31.88;;;6.28;;
23732;SDS011;12047;53.450;-2.286;2022-12-24T17:50:18;40.75;;;7.75;;
23732;SDS011;12047;53.450;-2.286;2022-12-24T17:55:27;34.40;;;8.15;;
23732;SDS011;12047;53.450;-2.286;2022-12-24T18:00:29;27.42;;;5.43;;
23732;SDS011;12047;53.450;-2.286;2022-12-24T18:05:32;26.92;;;6.07;;
23732;SDS011;12047;53.450;-2.286;2022-12-24T18:10:34;31.15;;;5.93;;
23732;SDS011;12047;53.450;-2.286;2022-12-24T18:15:36;29.17;;;6.30;;
23732;SDS011;12047;53.450;-2.286;2022-12-24T18:20:45;32.25;;;5.60;;
23732;SDS011;12047;53.450;-2.286;2022-12-24T18:25:46;29.88;;;5.95;;
23732;SDS011;12047;53.450;-2.286;2022-12-24T18:31:30;29.98;;;7.25;;
23732;SDS011;12047;53.450;-2.286;2022-12-24T18:36:32;35.08;;;7.25;;
23732;SDS011;12047;53.450;-2.286;2022-12-24T18:41:43;32.17;;;6.07;;
23732;SDS011;12047;53.450;-2.286;2022-12-24T18:52:24;35.15;;;6.90;;
23732;SDS011;12047;53.450;-2.286;2022-12-24T18:57:28;31.55;;;6.20;;
23732;SDS011;12047;53.450;-2.286;2022-12-24T19:02:37;28.58;;;6.38;;
23732;SDS011;12047;53.450;-2.286;2022-12-24T19:07:38;36.58;;;7.22;;
23732;SDS011;12047;53.450;-2.286;2022-12-24T19:18:43;47.33;;;8.80;;
23732;SDS011;12047;53.450;-2.286;2022-12-24T19:23:47;39.35;;;7.32;;
23732;SDS011;12047;53.450;-2.286;2022-12-24T19:28:48;40.70;;;7.95;;
23732;SDS011;12047;53.450;-2.286;2022-12-24T19:39:28;41.75;;;7.80;;
23732;SDS011;12047;53.450;-2.286;2022-12-24T19:44:29;30.10;;;7.25;;
23732;SDS011;12047;53.450;-2.286;2022-12-24T19:49:29;27.65;;;6.85;;
23732;SDS011;12047;53.450;-2.286;2022-12-24T19:54:30;33.80;;;7.78;;
23732;SDS011;12047;53.450;-2.286;2022-12-24T19:59:31;38.42;;;7.18;;
23732;SDS011;12047;53.450;-2.286;2022-12-24T20:04:32;30.95;;;6.50;;
23732;SDS011;12047;53.450;-2.286;2022-12-24T20:09:34;32.30;;;6.43;;
23732;SDS011;12047;53.450;-2.286;2022-12-24T20:14:38;33.75;;;6.85;;
23732;SDS011;12047;53.450;-2.286;2022-12-24T20:19:39;41.05;;;6.85;;
23732;SDS011;12047;53.450;-2.286;2022-12-24T20:30:02;32.72;;;5.15;;
23732;SDS011;12047;53.450;-2.286;2022-12-24T20:35:03;16.90;;;2.88;;
23732;SDS011;12047;53.450;-2.286;2022-12-24T20:40:07;15.75;;;3.30;;
23732;SDS011;12047;53.450;-2.286;2022-12-24T20:45:09;21.42;;;3.80;;
23732;SDS011;12047;53.450;-2.286;2022-12-24T20:50:18;22.65;;;4.05;;
23732;SDS011;12047;53.450;-2.286;2022-12-24T20:55:27;18.92;;;3.90;;
23732;SDS011;12047;53.450;-2.286;2022-12-24T21:00:30;14.18;;;3.13;;
23732;SDS011;12047;53.450;-2.286;2022-12-24T21:05:30;18.65;;;3.50;;
23732;SDS011;12047;53.450;-2.286;2022-12-24T21:16:29;17.75;;;3.70;;
23732;SDS011;12047;53.450;-2.286;2022-12-24T21:21:32;14.98;;;3.25;;
23732;SDS011;12047;53.450;-2.286;2022-12-24T21:26:33;15.85;;;4.45;;
23732;SDS011;12047;53.450;-2.286;2022-12-24T21:31:35;17.42;;;4.15;;
23732;SDS011;12047;53.450;-2.286;2022-12-24T21:36:36;11.57;;;3.15;;
23732;SDS011;12047;53.450;-2.286;2022-12-24T21:41:40;10.25;;;3.40;;
23732;SDS011;12047;53.450;-2.286;2022-12-24T21:46:41;12.55;;;3.60;;
23732;SDS011;12047;53.450;-2.286;2022-12-24T21:51:41;18.05;;;4.15;;
23732;SDS011;12047;53.450;-2.286;2022-12-24T21:56:48;20.77;;;4.68;;
23732;SDS011;12047;53.450;-2.286;2022-12-24T22:07:26;27.80;;;5.88;;
23732;SDS011;12047;53.450;-2.286;2022-12-24T22:24:05;20.40;;;3.40;;
23732;SDS011;12047;53.450;-2.286;2022-12-24T22:29:07;19.85;;;4.07;;
23732;SDS011;12047;53.450;-2.286;2022-12-24T22:34:11;22.05;;;3.78;;
23732;SDS011;12047;53.450;-2.286;2022-12-24T22:39:13;18.00;;;3.60;;
23732;SDS011;12047;53.450;-2.286;2022-12-24T22:44:14;17.63;;;3.15;;
23732;SDS011;12047;53.450;-2.286;2022-12-24T22:49:15;16.42;;;3.03;;
23732;SDS011;12047;53.450;-2.286;2022-12-24T22:54:15;14.90;;;3.25;;
23732;SDS011;12047;53.450;-2.286;2022-12-24T22:59:16;17.73;;;3.50;;
23732;SDS011;12047;53.450;-2.286;2022-12-24T23:04:17;15.55;;;2.55;;
23732;SDS011;12047;53.450;-2.286;2022-12-24T23:09:41;13.60;;;2.50;;
23732;SDS011;12047;53.450;-2.286;2022-12-24T23:14:41;8.70;;;2.13;;
23732;SDS011;12047;53.450;-2.286;2022-12-24T23:19:57;9.38;;;1.90;;
23732;SDS011;12047;53.450;-2.286;2022-12-24T23:25:02;7.68;;;1.73;;
23732;SDS011;12047;53.450;-2.286;2022-12-24T23:30:09;9.30;;;1.92;;
23732;SDS011;12047;53.450;-2.286;2022-12-24T23:35:16;8.98;;;2.53;;
23732;SDS011;12047;53.450;-2.286;2022-12-24T23:40:21;10.40;;;1.90;;
23732;SDS011;12047;53.450;-2.286;2022-12-24T23:45:26;8.25;;;2.25;;
23732;SDS011;12047;53.450;-2.286;2022-12-24T23:50:27;7.85;;;1.60;;
23732;SDS011;12047;53.450;-2.286;2022-12-24T23:55:28;6.75;;;1.48;;
